createdAt,value
2018-09-30T00:00:44.192Z,75.80
2018-09-30T00:03:14.397Z,75.18
2018-09-30T00:05:44.326Z,75.73
2018-09-30T00:08:14.161Z,75.88
2018-09-30T00:10:44.194Z,76.10
2018-09-30T00:13:14.077Z,75.93
2018-09-30T00:15:43.965Z,76.06
2018-09-30T00:18:13.869Z,75.77
2018-09-30T00:20:43.770Z,75.54
2018-09-30T00:23:13.679Z,75.46
2018-09-30T00:25:48.576Z,75.31
2018-09-30T00:28:18.419Z,75.59
2018-09-30T00:30:48.344Z,75.97
2018-09-30T00:33:18.172Z,75.85
2018-09-30T00:35:48.100Z,75.86
2018-09-30T00:38:17.967Z,75.90
2018-09-30T00:40:47.847Z,75.70
2018-09-30T00:43:17.724Z,75.82
2018-09-30T00:45:47.508Z,75.70
2018-09-30T00:48:17.390Z,75.89
2018-09-30T00:50:47.299Z,75.99
2018-09-30T00:53:17.185Z,76.37
2018-09-30T00:55:47.047Z,76.87
2018-09-30T00:58:16.928Z,76.38
2018-09-30T01:00:46.835Z,76.47
2018-09-30T01:03:16.743Z,76.76
2018-09-30T01:05:46.674Z,76.74
2018-09-30T01:08:16.516Z,76.47
2018-09-30T01:10:46.361Z,76.40
2018-09-30T01:13:16.246Z,76.60
2018-09-30T01:15:46.126Z,76.11
2018-09-30T01:18:15.867Z,76.19
2018-09-30T01:20:45.754Z,76.47
2018-09-30T01:23:15.673Z,76.30
2018-09-30T01:25:45.495Z,76.19
2018-09-30T01:28:15.435Z,76.35
2018-09-30T01:30:45.236Z,76.87
2018-09-30T01:33:15.197Z,76.80
2018-09-30T01:35:44.913Z,76.63
2018-09-30T01:38:14.679Z,76.67
2018-09-30T01:40:44.669Z,76.52
2018-09-30T01:43:14.555Z,76.39
2018-09-30T01:45:44.479Z,76.86
2018-09-30T01:48:14.345Z,76.42
2018-09-30T01:50:44.085Z,76.39
2018-09-30T01:53:14.039Z,76.80
2018-09-30T01:55:43.939Z,76.76
2018-09-30T01:58:13.777Z,76.77
2018-09-30T02:00:43.639Z,77.39
2018-09-30T02:03:13.527Z,77.33
2018-09-30T02:05:43.321Z,77.43
2018-09-30T02:08:13.187Z,77.51
2018-09-30T02:10:43.051Z,77.25
2018-09-30T02:13:12.867Z,77.31
2018-09-30T02:15:42.706Z,77.64
2018-09-30T02:18:12.543Z,77.43
2018-09-30T02:20:42.438Z,77.25
2018-09-30T02:23:12.387Z,77.40
2018-09-30T02:25:42.099Z,77.61
2018-09-30T02:28:11.965Z,77.72
2018-09-30T02:30:41.869Z,77.69
2018-09-30T02:33:11.705Z,77.54
2018-09-30T02:35:41.668Z,77.60
2018-09-30T02:38:11.578Z,77.48
2018-09-30T02:40:48.297Z,77.75
2018-09-30T02:43:18.198Z,77.89
2018-09-30T02:45:48.065Z,77.87
2018-09-30T02:48:17.836Z,77.83
2018-09-30T02:50:47.800Z,77.53
2018-09-30T02:53:17.593Z,77.59
2018-09-30T02:55:47.546Z,77.66
2018-09-30T02:58:17.416Z,77.99
2018-09-30T03:00:47.409Z,77.55
2018-09-30T03:03:17.280Z,78.33
2018-09-30T03:05:47.243Z,78.07
2018-09-30T03:08:22.139Z,77.80
2018-09-30T03:10:52.117Z,78.03
2018-09-30T03:13:21.968Z,78.05
2018-09-30T03:15:51.971Z,77.75
2018-09-30T03:18:21.818Z,77.97
2018-09-30T03:20:51.753Z,78.25
2018-09-30T03:23:21.754Z,78.56
2018-09-30T03:25:51.723Z,78.42
2018-09-30T03:28:21.623Z,78.50
2018-09-30T03:30:51.695Z,78.26
2018-09-30T03:33:21.565Z,78.24
2018-09-30T03:35:51.558Z,78.33
2018-09-30T03:38:21.539Z,78.54
2018-09-30T03:40:51.557Z,78.06
2018-09-30T03:43:21.420Z,77.97
2018-09-30T03:45:51.377Z,78.00
2018-09-30T03:48:21.196Z,77.87
2018-09-30T03:50:51.119Z,78.03
2018-09-30T03:53:21.062Z,77.69
2018-09-30T03:55:50.980Z,78.37
2018-09-30T03:58:20.787Z,78.01
2018-09-30T04:00:50.912Z,78.40
2018-09-30T04:03:20.750Z,78.27
2018-09-30T04:05:50.581Z,78.81
2018-09-30T04:08:20.462Z,78.72
2018-09-30T04:10:50.395Z,78.97
2018-09-30T04:13:20.388Z,79.22
2018-09-30T04:15:50.349Z,79.06
2018-09-30T04:18:20.230Z,78.82
2018-09-30T04:20:50.055Z,78.89
2018-09-30T04:23:19.969Z,78.79
2018-09-30T04:25:50.219Z,78.58
2018-09-30T04:28:20.104Z,78.39
2018-09-30T04:30:50.009Z,78.29
2018-09-30T04:33:19.864Z,78.53
2018-09-30T04:35:49.771Z,78.32
2018-09-30T04:38:19.608Z,78.64
2018-09-30T04:40:49.494Z,78.67
2018-09-30T04:43:19.417Z,78.63
2018-09-30T04:45:49.466Z,78.71
2018-09-30T04:48:19.318Z,78.76
2018-09-30T04:50:49.206Z,78.85
2018-09-30T04:53:19.011Z,78.79
2018-09-30T04:55:48.875Z,78.80
2018-09-30T04:58:18.830Z,78.99
2018-09-30T05:00:48.700Z,79.05
2018-09-30T05:03:18.623Z,79.40
2018-09-30T05:05:49.497Z,79.51
2018-09-30T05:08:19.430Z,79.14
2018-09-30T05:10:49.263Z,78.38
2018-09-30T05:13:19.271Z,78.18
2018-09-30T05:15:49.187Z,77.79
2018-09-30T05:18:19.129Z,76.95
2018-09-30T05:20:49.078Z,76.52
2018-09-30T05:23:18.996Z,76.40
2018-09-30T05:25:48.727Z,75.69
2018-09-30T05:28:18.506Z,74.83
2018-09-30T05:30:48.277Z,72.42
2018-09-30T05:33:18.183Z,71.16
2018-09-30T05:35:48.098Z,70.30
2018-09-30T05:38:18.241Z,69.43
2018-09-30T05:40:48.187Z,69.26
2018-09-30T05:43:18.114Z,69.71
2018-09-30T05:45:47.898Z,70.27
2018-09-30T05:48:17.805Z,70.84
2018-09-30T05:50:48.612Z,71.43
2018-09-30T05:53:18.585Z,71.66
2018-09-30T05:55:48.349Z,72.47
2018-09-30T05:58:18.291Z,72.66
2018-09-30T06:00:48.188Z,72.96
2018-09-30T06:03:18.172Z,72.96
2018-09-30T06:05:48.159Z,72.00
2018-09-30T06:08:18.022Z,71.24
2018-09-30T06:10:47.877Z,70.53
2018-09-30T06:13:17.803Z,70.33
2018-09-30T06:15:47.751Z,70.10
2018-09-30T06:18:17.660Z,69.05
2018-09-30T06:20:47.493Z,68.72
2018-09-30T06:23:17.378Z,68.92
2018-09-30T06:25:47.313Z,68.54
2018-09-30T06:28:17.283Z,68.37
2018-09-30T06:30:47.225Z,68.11
2018-09-30T06:33:17.118Z,67.63
2018-09-30T06:35:47.023Z,67.49
2018-09-30T06:38:16.909Z,67.36
2018-09-30T06:40:46.839Z,67.63
2018-09-30T06:43:16.629Z,66.73
2018-09-30T06:45:46.545Z,66.42
2018-09-30T06:48:16.406Z,67.10
2018-09-30T06:50:46.341Z,66.98
2018-09-30T06:53:16.220Z,66.21
2018-09-30T06:55:46.078Z,65.64
2018-09-30T06:58:15.859Z,65.09
2018-09-30T07:00:45.717Z,65.00
2018-09-30T07:03:15.637Z,65.61
2018-09-30T07:05:46.539Z,64.96
2018-09-30T07:08:16.577Z,64.85
2018-09-30T07:10:46.482Z,64.61
2018-09-30T07:13:16.373Z,64.78
2018-09-30T07:15:46.411Z,65.69
2018-09-30T07:18:16.612Z,64.02
2018-09-30T07:20:46.476Z,63.95
2018-09-30T07:23:16.468Z,63.43
2018-09-30T07:25:46.426Z,63.33
2018-09-30T07:28:16.368Z,63.10
2018-09-30T07:30:46.262Z,63.42
2018-09-30T07:33:16.197Z,63.07
2018-09-30T07:35:46.229Z,62.84
2018-09-30T07:38:16.267Z,62.43
2018-09-30T07:40:46.218Z,61.85
2018-09-30T07:43:17.178Z,59.69
2018-09-30T07:45:47.037Z,60.30
2018-09-30T07:48:16.945Z,60.36
2018-09-30T07:50:46.863Z,61.98
2018-09-30T07:53:16.861Z,61.70
2018-09-30T07:55:46.783Z,59.44
2018-09-30T07:58:16.770Z,59.65
2018-09-30T08:00:46.637Z,59.81
2018-09-30T08:03:16.573Z,58.83
2018-09-30T08:05:46.475Z,58.38
2018-09-30T08:08:16.775Z,57.45
2018-09-30T08:10:46.812Z,56.40
2018-09-30T08:13:16.638Z,55.50
2018-09-30T08:15:46.965Z,54.47
2018-09-30T08:18:17.197Z,53.69
2018-09-30T08:20:47.097Z,51.50
2018-09-30T08:23:17.001Z,51.57
2018-09-30T08:25:46.954Z,51.35
2018-09-30T08:28:16.915Z,50.08
2018-09-30T08:30:46.882Z,47.49
2018-09-30T08:33:16.719Z,47.33
2018-09-30T08:35:51.526Z,46.91
2018-09-30T08:38:29.483Z,45.96
2018-09-30T08:41:02.123Z,45.01
2018-09-30T08:43:33.696Z,43.81
2018-09-30T08:46:03.573Z,44.42
2018-09-30T08:48:33.491Z,42.47
2018-09-30T08:51:03.367Z,41.67
2018-09-30T08:53:33.672Z,42.25
2018-09-30T08:56:03.576Z,42.01
2018-09-30T08:58:33.515Z,41.53
2018-09-30T09:01:03.409Z,42.51
2018-09-30T09:03:33.387Z,42.93
2018-09-30T09:06:03.197Z,40.75
2018-09-30T09:08:33.079Z,39.90
2018-09-30T09:11:02.885Z,39.47
2018-09-30T09:13:32.957Z,39.92
2018-09-30T09:16:02.803Z,39.03
2018-09-30T09:18:32.795Z,40.50
2018-09-30T09:21:02.684Z,40.71
2018-09-30T09:23:32.547Z,40.64
2018-09-30T09:26:02.423Z,40.65
2018-09-30T09:28:32.286Z,39.97
2018-09-30T09:31:02.199Z,40.05
2018-09-30T09:33:32.194Z,39.66
2018-09-30T09:36:02.243Z,40.83
2018-09-30T09:38:32.738Z,39.95
2018-09-30T09:41:02.675Z,39.35
2018-09-30T09:43:32.484Z,38.99
2018-09-30T09:46:02.420Z,39.96
2018-09-30T09:48:32.270Z,39.96
2018-09-30T09:51:02.786Z,40.27
2018-09-30T09:53:32.833Z,40.13
2018-09-30T09:56:02.804Z,40.72
2018-09-30T09:58:32.867Z,39.64
2018-09-30T10:01:08.540Z,40.18
2018-09-30T10:03:41.005Z,39.59
2018-09-30T10:06:10.835Z,40.11
2018-09-30T10:08:40.686Z,39.94
2018-09-30T10:11:10.794Z,40.83
2018-09-30T10:13:42.006Z,39.85
2018-09-30T10:16:12.383Z,40.65
2018-09-30T10:18:42.409Z,39.72
2018-09-30T10:21:12.355Z,39.63
2018-09-30T10:23:42.281Z,39.52
2018-09-30T10:26:13.003Z,39.57
2018-09-30T10:28:42.815Z,38.49
2018-09-30T10:31:12.721Z,39.91
2018-09-30T10:33:42.478Z,41.02
2018-09-30T10:36:12.349Z,39.90
2018-09-30T10:38:42.378Z,39.51
2018-09-30T10:41:12.431Z,40.65
2018-09-30T10:43:42.215Z,41.16
2018-09-30T10:46:12.018Z,41.43
2018-09-30T10:48:41.812Z,42.61
2018-09-30T10:51:11.739Z,42.97
2018-09-30T10:53:41.563Z,40.29
2018-09-30T10:56:11.374Z,40.79
2018-09-30T10:58:41.263Z,42.64
2018-09-30T11:01:11.067Z,40.15
2018-09-30T11:03:40.883Z,40.44
2018-09-30T11:06:11.248Z,40.10
2018-09-30T11:08:41.073Z,40.60
2018-09-30T11:11:10.897Z,41.21
2018-09-30T11:13:42.518Z,40.88
2018-09-30T11:16:12.368Z,41.29
2018-09-30T11:18:42.285Z,40.62
2018-09-30T11:21:12.191Z,41.09
2018-09-30T11:23:42.054Z,40.95
2018-09-30T11:26:11.898Z,41.13
2018-09-30T11:28:41.803Z,40.81
2018-09-30T11:31:11.664Z,40.90
2018-09-30T11:33:41.522Z,40.84
2018-09-30T11:36:11.364Z,40.93
2018-09-30T11:38:41.252Z,40.97
2018-09-30T11:41:11.141Z,40.98
2018-09-30T11:43:40.986Z,41.11
2018-09-30T11:46:10.743Z,41.17
2018-09-30T11:48:40.570Z,41.17
2018-09-30T11:51:10.354Z,40.80
2018-09-30T11:53:40.213Z,40.75
2018-09-30T11:56:10.091Z,40.24
2018-09-30T11:58:39.963Z,40.78
2018-09-30T12:01:10.045Z,40.39
2018-09-30T12:03:39.897Z,40.79
2018-09-30T12:06:09.800Z,40.70
2018-09-30T12:08:39.724Z,40.87
2018-09-30T12:11:09.506Z,40.47
2018-09-30T12:13:40.113Z,40.50
2018-09-30T12:16:09.794Z,40.32
2018-09-30T12:18:39.646Z,40.34
2018-09-30T12:21:09.476Z,40.69
2018-09-30T12:23:39.280Z,40.28
2018-09-30T12:26:09.289Z,40.27
2018-09-30T12:28:39.156Z,41.21
2018-09-30T12:31:08.965Z,41.81
2018-09-30T12:33:38.865Z,41.83
2018-09-30T12:36:08.647Z,41.98
2018-09-30T12:38:38.589Z,42.82
2018-09-30T12:41:08.590Z,43.06
2018-09-30T12:43:38.447Z,42.30
2018-09-30T12:46:08.235Z,42.42
2018-09-30T12:48:38.050Z,42.53
2018-09-30T12:51:08.390Z,42.92
2018-09-30T12:53:38.198Z,43.55
2018-09-30T12:56:07.943Z,43.17
2018-09-30T12:58:37.878Z,43.59
2018-09-30T13:01:07.649Z,45.54
2018-09-30T13:03:37.533Z,46.78
2018-09-30T13:06:07.664Z,44.51
2018-09-30T13:08:37.519Z,43.33
2018-09-30T13:11:07.462Z,43.79
2018-09-30T13:13:37.340Z,43.32
2018-09-30T13:16:07.049Z,43.88
2018-09-30T13:18:36.891Z,43.95
2018-09-30T13:21:06.819Z,43.63
2018-09-30T13:23:36.546Z,43.92
2018-09-30T13:26:06.375Z,43.64
2018-09-30T13:28:36.900Z,44.64
2018-09-30T13:31:06.671Z,44.44
2018-09-30T13:33:36.553Z,44.65
2018-09-30T13:36:06.409Z,44.31
2018-09-30T13:38:36.285Z,44.84
2018-09-30T13:41:12.462Z,44.83
2018-09-30T13:43:42.155Z,45.54
2018-09-30T13:46:11.822Z,44.87
2018-09-30T13:48:41.511Z,45.12
2018-09-30T13:51:11.257Z,45.25
2018-09-30T13:53:40.911Z,46.01
2018-09-30T13:56:10.649Z,45.92
2018-09-30T13:58:40.339Z,46.54
2018-09-30T14:01:09.980Z,46.55
2018-09-30T14:03:39.663Z,46.75
2018-09-30T14:06:09.332Z,46.11
2018-09-30T14:08:38.952Z,46.02
2018-09-30T14:11:09.040Z,46.46
2018-09-30T14:13:38.796Z,46.83
2018-09-30T14:16:08.747Z,46.70
2018-09-30T14:18:38.415Z,45.90
2018-09-30T14:21:08.119Z,46.75
2018-09-30T14:23:38.289Z,46.68
2018-09-30T14:26:08.490Z,46.41
2018-09-30T14:28:38.180Z,45.89
2018-09-30T14:31:07.875Z,45.99
2018-09-30T14:33:37.640Z,46.72
2018-09-30T14:36:07.461Z,46.43
2018-09-30T14:38:37.552Z,46.95
2018-09-30T14:41:07.333Z,47.35
2018-09-30T14:43:37.126Z,47.23
2018-09-30T14:46:06.796Z,47.53
2018-09-30T14:48:36.516Z,47.53
2018-09-30T14:51:06.361Z,48.36
2018-09-30T14:53:36.125Z,48.48
2018-09-30T14:56:06.095Z,48.79
2018-09-30T14:58:35.841Z,48.45
2018-09-30T15:01:05.668Z,48.99
2018-09-30T15:03:35.489Z,49.48
2018-09-30T15:06:05.305Z,49.31
2018-09-30T15:08:35.077Z,48.77
2018-09-30T15:11:04.814Z,48.43
2018-09-30T15:13:34.660Z,48.76
2018-09-30T15:16:04.857Z,49.11
2018-09-30T15:18:35.290Z,49.79
2018-09-30T15:21:05.217Z,49.46
2018-09-30T15:23:35.105Z,49.85
2018-09-30T15:26:04.986Z,49.52
2018-09-30T15:28:34.836Z,49.47
2018-09-30T15:31:04.681Z,49.64
2018-09-30T15:33:34.426Z,49.63
2018-09-30T15:36:04.390Z,49.35
2018-09-30T15:38:34.181Z,49.61
2018-09-30T15:41:05.902Z,49.69
2018-09-30T15:43:35.772Z,50.00
2018-09-30T15:46:05.813Z,51.17
2018-09-30T15:48:35.711Z,54.84
2018-09-30T15:51:05.709Z,56.59
2018-09-30T15:53:35.568Z,53.26
2018-09-30T15:56:05.469Z,52.13
2018-09-30T15:58:36.300Z,52.12
2018-09-30T16:01:06.262Z,58.94
2018-09-30T16:03:36.191Z,55.64
2018-09-30T16:06:05.992Z,53.48
2018-09-30T16:08:35.907Z,55.53
2018-09-30T16:11:05.999Z,56.46
2018-09-30T16:13:35.930Z,55.95
2018-09-30T16:16:06.019Z,56.60
2018-09-30T16:18:36.830Z,56.75
2018-09-30T16:21:07.286Z,56.92
2018-09-30T16:23:37.145Z,58.01
2018-09-30T16:26:07.501Z,58.11
2018-09-30T16:28:37.903Z,58.71
2018-09-30T16:31:07.853Z,59.44
2018-09-30T16:33:37.909Z,59.84
2018-09-30T16:36:08.157Z,60.12
2018-09-30T16:38:38.374Z,62.78
2018-09-30T16:41:09.025Z,62.95
2018-09-30T16:43:39.064Z,60.70
2018-09-30T16:46:09.173Z,60.96
2018-09-30T16:48:39.336Z,61.45
2018-09-30T16:51:09.694Z,61.47
2018-09-30T16:53:40.051Z,62.52
2018-09-30T16:56:10.055Z,62.79
2018-09-30T16:58:39.955Z,62.63
2018-09-30T17:01:09.918Z,63.08
2018-09-30T17:03:39.856Z,62.96
2018-09-30T17:06:10.075Z,63.36
2018-09-30T17:08:40.361Z,62.61
2018-09-30T17:11:10.260Z,62.55
2018-09-30T17:13:40.160Z,62.76
2018-09-30T17:16:10.686Z,63.27
2018-09-30T17:18:40.846Z,63.38
2018-09-30T17:21:10.741Z,63.55
2018-09-30T17:23:40.650Z,63.80
2018-09-30T17:26:11.240Z,64.77
2018-09-30T17:28:42.638Z,64.26
2018-09-30T17:31:12.982Z,66.28
2018-09-30T17:33:42.922Z,66.91
2018-09-30T17:36:13.219Z,66.43
2018-09-30T17:38:43.318Z,66.43
2018-09-30T17:41:14.115Z,66.74
2018-09-30T17:43:44.276Z,67.05
2018-09-30T17:46:15.797Z,66.83
2018-09-30T17:48:46.147Z,67.14
2018-09-30T17:51:17.362Z,66.93
2018-09-30T17:53:49.285Z,66.74
2018-09-30T17:56:19.617Z,67.08
2018-09-30T17:58:51.662Z,66.86
2018-09-30T18:01:25.218Z,66.81
2018-09-30T18:03:57.344Z,67.78
2018-09-30T18:06:28.303Z,67.86
2018-09-30T18:09:02.341Z,68.46
2018-09-30T18:11:33.176Z,68.62
2018-09-30T18:14:04.906Z,68.62
2018-09-30T18:16:37.693Z,68.65
2018-09-30T18:19:08.021Z,69.38
2018-09-30T18:21:39.391Z,69.53
2018-09-30T18:24:10.042Z,69.12
2018-09-30T18:26:40.056Z,69.49
2018-09-30T18:29:11.164Z,69.51
2018-09-30T18:31:41.871Z,70.37
2018-09-30T18:34:11.652Z,70.47
2018-09-30T18:36:41.840Z,71.07
2018-09-30T18:39:13.243Z,70.52
2018-09-30T18:41:44.445Z,70.59
2018-09-30T18:44:15.618Z,70.63
2018-09-30T18:46:46.140Z,71.05
2018-09-30T18:49:16.770Z,71.02
2018-09-30T18:51:47.131Z,71.20
2018-09-30T18:54:17.428Z,71.59
2018-09-30T18:56:47.760Z,71.75
2018-09-30T18:59:17.801Z,72.29
2018-09-30T19:01:48.011Z,72.63
2018-09-30T19:04:18.140Z,72.46
2018-09-30T19:06:48.102Z,72.88
2018-09-30T19:09:18.429Z,73.04
2018-09-30T19:11:48.319Z,73.48
2018-09-30T19:14:18.218Z,72.99
2018-09-30T19:16:49.303Z,72.93
2018-09-30T19:19:19.139Z,73.42
2018-09-30T19:21:49.280Z,73.79
2018-09-30T19:24:20.342Z,73.55
2018-09-30T19:26:50.739Z,74.33
2018-09-30T19:29:20.876Z,74.23
2018-09-30T19:31:50.807Z,74.51
2018-09-30T19:34:20.932Z,74.76
2018-09-30T19:36:52.550Z,75.16
2018-09-30T19:39:23.030Z,75.10
2018-09-30T19:41:53.051Z,75.33
2018-09-30T19:44:23.367Z,75.53
2018-09-30T19:46:53.431Z,75.89
2018-09-30T19:49:23.297Z,76.81
2018-09-30T19:51:53.217Z,78.10
2018-09-30T19:54:23.131Z,75.27
2018-09-30T19:56:53.204Z,75.36
2018-09-30T19:59:23.444Z,75.08
2018-09-30T20:01:56.460Z,75.32
2018-09-30T20:04:28.103Z,75.40
2018-09-30T20:06:59.288Z,75.80
2018-09-30T20:09:30.703Z,76.03
2018-09-30T20:12:01.292Z,75.09
2018-09-30T20:14:32.478Z,76.41
2018-09-30T20:17:03.392Z,76.00
2018-09-30T20:19:33.842Z,76.58
2018-09-30T20:22:04.625Z,76.14
2018-09-30T20:24:38.623Z,76.48
2018-09-30T20:27:09.113Z,76.35
2018-09-30T20:29:39.058Z,76.93
2018-09-30T20:32:08.963Z,77.17
2018-09-30T20:34:39.463Z,77.20
2018-09-30T20:37:09.966Z,77.22
2018-09-30T20:39:40.172Z,77.15
2018-09-30T20:42:10.278Z,77.48
2018-09-30T20:44:40.313Z,77.61
2018-09-30T20:47:10.725Z,77.73
2018-09-30T20:49:41.603Z,77.88
2018-09-30T20:52:11.483Z,77.94
2018-09-30T20:54:41.299Z,77.95
2018-09-30T20:57:11.127Z,78.15
2018-09-30T20:59:41.000Z,78.03
2018-09-30T21:02:11.003Z,78.07
2018-09-30T21:04:41.519Z,78.32
2018-09-30T21:07:11.903Z,78.35
2018-09-30T21:09:42.016Z,78.64
2018-09-30T21:12:11.876Z,78.62
2018-09-30T21:14:42.076Z,78.79
2018-09-30T21:17:12.026Z,78.92
2018-09-30T21:19:41.903Z,78.73
2018-09-30T21:22:12.738Z,78.53
2018-09-30T21:24:42.617Z,78.79
2018-09-30T21:27:12.395Z,78.57
2018-09-30T21:29:42.210Z,78.35
2018-09-30T21:32:12.051Z,78.67
2018-09-30T21:34:41.891Z,78.61
2018-09-30T21:37:11.659Z,78.92
2018-09-30T21:39:41.515Z,79.01
2018-09-30T21:42:11.444Z,79.28
2018-09-30T21:44:41.203Z,79.10
2018-09-30T21:47:11.147Z,79.20
2018-09-30T21:49:41.006Z,79.28
2018-09-30T21:52:10.823Z,79.07
2018-09-30T21:54:40.723Z,79.26
2018-09-30T21:57:10.634Z,79.58
2018-09-30T21:59:40.589Z,79.65
2018-09-30T22:02:10.449Z,79.44
2018-09-30T22:04:40.286Z,79.57
2018-09-30T22:07:10.143Z,79.33
2018-09-30T22:09:39.987Z,79.36
2018-09-30T22:12:09.898Z,79.58
2018-09-30T22:14:39.795Z,79.55
2018-09-30T22:17:10.096Z,79.58
2018-09-30T22:19:39.996Z,79.95
2018-09-30T22:22:09.822Z,79.99
2018-09-30T22:24:39.749Z,80.01
2018-09-30T22:27:09.597Z,80.22
2018-09-30T22:29:39.527Z,79.90
2018-09-30T22:32:09.529Z,79.76
2018-09-30T22:34:39.388Z,80.00
2018-09-30T22:37:09.263Z,79.98
2018-09-30T22:39:39.173Z,79.83
2018-09-30T22:42:09.002Z,79.85
2018-09-30T22:44:38.911Z,79.74
2018-09-30T22:47:09.419Z,79.86
2018-09-30T22:49:45.577Z,79.77
2018-09-30T22:52:15.457Z,79.64
2018-09-30T22:54:45.357Z,79.58
2018-09-30T22:57:15.138Z,79.32
2018-09-30T22:59:44.970Z,79.34
2018-09-30T23:02:14.857Z,79.51
2018-09-30T23:04:44.808Z,79.64
2018-09-30T23:07:14.580Z,79.74
2018-09-30T23:09:44.402Z,79.69
2018-09-30T23:12:14.217Z,79.71
2018-09-30T23:14:44.077Z,79.90
2018-09-30T23:17:13.977Z,79.74
2018-09-30T23:19:43.895Z,79.83
2018-09-30T23:22:13.797Z,79.89
2018-09-30T23:24:43.617Z,80.30
2018-09-30T23:27:13.437Z,79.56
2018-09-30T23:29:43.318Z,79.69
2018-09-30T23:32:13.229Z,79.93
2018-09-30T23:34:43.045Z,79.87
2018-09-30T23:37:12.880Z,80.08
2018-09-30T23:39:42.750Z,80.02
2018-09-30T23:42:12.538Z,80.08
2018-09-30T23:44:42.326Z,80.12
2018-09-30T23:47:12.184Z,80.14
2018-09-30T23:49:41.929Z,80.57
2018-09-30T23:52:11.738Z,80.58
2018-09-30T23:54:41.587Z,80.37
2018-09-30T23:57:11.435Z,80.53
2018-09-30T23:59:41.301Z,80.63
